createdAt,value
2022-09-23T00:01:26.378Z,100119.84
2022-09-23T00:04:00.742Z,100113.97
2022-09-23T00:06:28.427Z,100120.88
2022-09-23T00:08:56.808Z,100116.31
2022-09-23T00:11:26.797Z,100113.66
2022-09-23T00:13:57.148Z,100119.09
2022-09-23T00:16:29.604Z,100113.47
2022-09-23T00:18:57.210Z,100115.50
2022-09-23T00:21:26.126Z,100113.44
2022-09-23T00:23:54.077Z,100112.91
2022-09-23T00:26:22.707Z,100099.75
2022-09-23T00:28:50.769Z,100106.19
2022-09-23T00:31:23.696Z,100100.97
2022-09-23T00:33:56.804Z,100099.56
2022-09-23T00:36:25.280Z,100101.72
2022-09-23T00:38:53.732Z,100096.72
2022-09-23T00:41:24.490Z,100098.63
2022-09-23T00:43:55.167Z,100086.78
2022-09-23T00:46:43.740Z,100084.09
2022-09-23T00:49:25.445Z,100081.03
2022-09-23T00:51:58.892Z,100081.56
2022-09-23T00:54:27.711Z,100079.50
2022-09-23T00:56:56.239Z,100082.50
2022-09-23T00:59:24.504Z,100086.38
2022-09-23T01:01:54.934Z,100086.38
2022-09-23T01:04:23.819Z,100081.78
2022-09-23T01:06:52.987Z,100083.47
2022-09-23T01:09:20.951Z,100089.59
2022-09-23T01:11:57.865Z,100078.63
2022-09-23T01:14:47.556Z,100089.13
2022-09-23T01:17:37.162Z,100088.03
2022-09-23T01:20:30.042Z,100086.97
2022-09-23T01:23:07.572Z,100088.03
2022-09-23T01:25:43.494Z,100092.34
2022-09-23T01:28:25.516Z,100086.72
2022-09-23T01:31:03.353Z,100083.41
2022-09-23T01:33:41.596Z,100089.13
2022-09-23T01:36:19.198Z,100087.47
2022-09-23T01:39:14.639Z,100080.13
2022-09-23T01:41:49.739Z,100083.88
2022-09-23T01:44:29.667Z,100086.78
2022-09-23T01:47:03.649Z,100084.69
2022-09-23T01:49:57.823Z,100086.12
2022-09-23T01:52:41.859Z,100082.03
2022-09-23T01:55:17.416Z,100082.75
2022-09-23T01:57:49.053Z,100081.53
2022-09-23T02:00:22.624Z,100076.97
2022-09-23T02:03:01.248Z,100082.88
2022-09-23T02:05:39.497Z,100076.25
2022-09-23T02:08:15.227Z,100080.09
2022-09-23T02:10:45.991Z,100078.50
2022-09-23T02:13:20.697Z,100081.88
2022-09-23T02:15:51.738Z,100076.69
2022-09-23T02:18:25.467Z,100075.16
2022-09-23T02:20:57.415Z,100067.53
2022-09-23T02:23:35.563Z,100072.13
2022-09-23T02:26:08.287Z,100078.88
2022-09-23T02:28:55.478Z,100074.56
2022-09-23T02:31:29.826Z,100081.44
2022-09-23T02:34:19.112Z,100076.06
2022-09-23T02:37:02.748Z,100075.88
2022-09-23T02:39:38.752Z,100075.22
2022-09-23T02:42:13.005Z,100082.34
2022-09-23T02:44:41.025Z,100080.94
2022-09-23T02:47:09.089Z,100072.03
2022-09-23T02:49:36.879Z,100075.75
2022-09-23T02:52:08.224Z,100092.38
2022-09-23T02:54:37.169Z,100080.28
2022-09-23T02:57:06.911Z,100078.72
2022-09-23T02:59:35.650Z,100077.87
2022-09-23T03:02:29.350Z,100077.28
2022-09-23T03:05:05.794Z,100077.34
2022-09-23T03:07:39.952Z,100075.97
2022-09-23T03:10:28.383Z,100075.97
2022-09-23T03:13:18.847Z,100072.13
2022-09-23T03:15:57.338Z,100074.31
2022-09-23T03:18:50.459Z,100072.62
2022-09-23T03:21:27.031Z,100080.69
2022-09-23T03:23:57.419Z,100079.59
2022-09-23T03:26:29.923Z,100080.84
2022-09-23T03:28:58.902Z,100072.31
2022-09-23T03:31:27.159Z,100077.59
2022-09-23T03:33:57.447Z,100069.34
2022-09-23T03:36:49.006Z,100080.34
2022-09-23T03:39:26.933Z,100080.81
2022-09-23T03:41:57.286Z,100078.50
2022-09-23T03:44:25.130Z,100075.56
2022-09-23T03:46:53.247Z,100074.63
2022-09-23T03:49:30.818Z,100076.72
2022-09-23T03:52:00.362Z,100076.69
2022-09-23T03:54:30.279Z,100073.69
2022-09-23T03:56:59.519Z,100075.75
2022-09-23T03:59:28.199Z,100077.28
2022-09-23T04:01:56.396Z,100076.91
2022-09-23T04:04:28.728Z,100080.81
2022-09-23T04:06:59.783Z,100078.66
2022-09-23T04:09:31.640Z,100081.09
2022-09-23T04:11:59.934Z,100078.72
2022-09-23T04:14:29.680Z,100085.56
2022-09-23T04:16:57.976Z,100081.06
2022-09-23T04:19:25.875Z,100083.12
2022-09-23T04:21:55.447Z,100080.81
2022-09-23T04:24:23.383Z,100090.06
2022-09-23T04:26:56.050Z,100079.22
2022-09-23T04:29:25.859Z,100084.06
2022-09-23T04:31:56.107Z,100082.97
2022-09-23T04:34:26.040Z,100085.63
2022-09-23T04:36:54.195Z,100088.25
2022-09-23T04:39:21.943Z,100091.28
2022-09-23T04:41:50.121Z,100090.72
2022-09-23T04:44:17.971Z,100093.38
2022-09-23T04:46:49.476Z,100096.41
2022-09-23T04:49:18.733Z,100101.63
2022-09-23T04:51:48.331Z,100105.37
2022-09-23T04:54:17.080Z,100099.16
2022-09-23T04:56:45.828Z,100097.78
2022-09-23T04:59:14.784Z,100097.81
2022-09-23T05:01:43.813Z,100097.34
2022-09-23T05:04:14.069Z,100103.97
2022-09-23T05:06:46.109Z,100107.34
2022-09-23T05:09:17.354Z,100111.66
2022-09-23T05:11:45.884Z,100110.22
2022-09-23T05:14:14.511Z,100117.19
2022-09-23T05:16:42.586Z,100121.19
2022-09-23T05:19:11.860Z,100118.94
2022-09-23T05:21:40.374Z,100117.56
2022-09-23T05:24:09.165Z,100116.66
2022-09-23T05:26:36.973Z,100124.25
2022-09-23T05:29:05.392Z,100116.09
2022-09-23T05:31:33.165Z,100124.53
2022-09-23T05:34:03.735Z,100121.47
2022-09-23T05:36:38.342Z,100122.47
2022-09-23T05:39:08.652Z,100127.56
2022-09-23T05:41:37.202Z,100124.91
2022-09-23T05:44:05.389Z,100127.34
2022-09-23T05:46:33.769Z,100129.88
2022-09-23T05:49:03.722Z,100130.97
2022-09-23T05:51:32.951Z,100122.34
2022-09-23T05:54:06.857Z,100116.19
2022-09-23T05:56:38.206Z,100124.66
2022-09-23T05:59:06.581Z,100125.59
2022-09-23T06:01:38.187Z,100118.37
2022-09-23T06:04:08.304Z,100113.78
2022-09-23T06:06:41.834Z,100125.94
2022-09-23T06:09:14.976Z,100120.91
2022-09-23T06:11:42.944Z,100129.09
2022-09-23T06:14:14.961Z,100117.03
2022-09-23T06:16:43.222Z,100124.44
2022-09-23T06:19:11.257Z,100135.81
2022-09-23T06:21:40.490Z,100125.16
2022-09-23T06:24:08.747Z,100133.72
2022-09-23T06:26:37.962Z,100129.34
2022-09-23T06:29:12.543Z,100122.63
2022-09-23T06:31:41.644Z,100119.94
2022-09-23T06:34:13.251Z,100127.84
2022-09-23T06:36:44.988Z,100129.44
2022-09-23T06:39:14.998Z,100137.09
2022-09-23T06:41:44.149Z,100141.59
2022-09-23T06:44:15.888Z,100139.00
2022-09-23T06:46:47.082Z,100143.06
2022-09-23T06:49:15.502Z,100140.28
2022-09-23T06:51:46.080Z,100135.94
2022-09-23T06:54:20.609Z,100140.22
2022-09-23T06:56:49.539Z,100141.44
2022-09-23T06:59:41.885Z,100138.69
2022-09-23T07:02:16.399Z,100135.78
2022-09-23T07:04:45.208Z,100137.81
2022-09-23T07:07:26.315Z,100132.41
2022-09-23T07:10:02.736Z,100135.84
2022-09-23T07:12:34.142Z,100131.34
2022-09-23T07:15:08.802Z,100136.78
2022-09-23T07:17:43.335Z,100138.31
2022-09-23T07:20:12.841Z,100140.72
2022-09-23T07:22:47.566Z,100144.31
2022-09-23T07:25:25.229Z,100150.59
2022-09-23T07:27:58.927Z,100143.94
2022-09-23T07:30:27.856Z,100149.09
2022-09-23T07:32:59.986Z,100151.22
2022-09-23T07:35:29.169Z,100154.72
2022-09-23T07:38:02.687Z,100148.44
2022-09-23T07:40:45.749Z,100142.66
2022-09-23T07:43:14.469Z,100155.22
2022-09-23T07:46:00.551Z,100154.09
2022-09-23T07:48:36.903Z,100150.19
2022-09-23T07:51:18.919Z,100143.25
2022-09-23T07:53:54.070Z,100147.97
2022-09-23T07:56:30.062Z,100145.59
2022-09-23T07:59:01.186Z,100148.03
2022-09-23T08:01:45.751Z,100147.75
2022-09-23T08:04:23.680Z,100151.88
2022-09-23T08:06:55.589Z,100144.53
2022-09-23T08:09:28.330Z,100145.03
2022-09-23T08:11:56.693Z,100153.16
2022-09-23T08:14:25.168Z,100152.16
2022-09-23T08:16:54.283Z,100147.97
2022-09-23T08:19:24.270Z,100145.69
2022-09-23T08:21:53.042Z,100147.09
2022-09-23T08:24:27.241Z,100148.00
2022-09-23T08:26:56.671Z,100145.28
2022-09-23T08:29:26.608Z,100144.00
2022-09-23T08:31:58.720Z,100138.97
2022-09-23T08:34:28.241Z,100136.50
2022-09-23T08:36:57.418Z,100139.38
2022-09-23T08:39:27.405Z,100138.75
2022-09-23T08:42:15.662Z,100138.47
2022-09-23T08:44:51.470Z,100139.44
2022-09-23T08:47:24.304Z,100143.66
2022-09-23T08:50:22.529Z,100133.31
2022-09-23T08:53:04.006Z,100141.87
2022-09-23T08:55:40.217Z,100138.81
2022-09-23T08:58:45.708Z,100141.19
2022-09-23T09:01:20.517Z,100135.84
2022-09-23T09:03:58.584Z,100138.03
2022-09-23T09:07:24.639Z,100140.72
2022-09-23T09:09:58.554Z,100143.91
2022-09-23T09:12:48.469Z,100138.44
2022-09-23T09:15:29.101Z,100140.53
2022-09-23T09:18:08.021Z,100144.28
2022-09-23T09:20:45.019Z,100135.00
2022-09-23T09:23:51.242Z,100139.41
2022-09-23T09:26:35.551Z,100139.25
2022-09-23T09:29:34.153Z,100131.87
2022-09-23T09:32:48.889Z,100132.53
2022-09-23T09:35:48.538Z,100125.69
2022-09-23T09:38:22.777Z,100125.50
2022-09-23T09:41:00.820Z,100122.81
2022-09-23T09:43:35.762Z,100122.47
2022-09-23T09:46:46.082Z,100120.75
2022-09-23T09:49:26.963Z,100117.03
2022-09-23T09:52:13.324Z,100118.75
2022-09-23T09:54:49.701Z,100122.41
2022-09-23T09:57:37.505Z,100117.69
2022-09-23T10:00:26.459Z,100114.66
2022-09-23T10:03:14.312Z,100111.25
2022-09-23T10:06:14.820Z,100110.72
2022-09-23T10:09:19.411Z,100103.34
2022-09-23T10:12:24.682Z,100109.16
2022-09-23T10:14:58.858Z,100106.66
2022-09-23T10:17:37.865Z,100106.50
2022-09-23T10:20:21.866Z,100101.97
2022-09-23T10:23:41.126Z,100103.03
2022-09-23T10:26:55.399Z,100101.37
2022-09-23T10:29:44.655Z,100098.94
2022-09-23T10:32:40.251Z,100103.88
2022-09-23T10:35:17.133Z,100107.34
2022-09-23T10:38:09.744Z,100109.47
2022-09-23T10:41:02.355Z,100105.81
2022-09-23T10:44:07.489Z,100092.97
2022-09-23T10:46:51.882Z,100083.19
2022-09-23T10:49:46.373Z,100091.13
2022-09-23T10:52:35.728Z,100083.91
2022-09-23T10:55:41.928Z,100094.69
2022-09-23T10:58:52.280Z,100095.91
2022-09-23T11:01:39.707Z,100089.75
2022-09-23T11:04:30.227Z,100080.84
2022-09-23T11:07:07.671Z,100087.91
2022-09-23T11:09:47.692Z,100086.25
2022-09-23T11:12:27.852Z,100090.06
2022-09-23T11:15:16.615Z,100080.31
2022-09-23T11:18:00.453Z,100075.94
2022-09-23T11:20:31.263Z,100083.22
2022-09-23T11:23:23.729Z,100067.87
2022-09-23T11:25:54.954Z,100069.28
2022-09-23T11:28:43.828Z,100069.03
2022-09-23T11:31:31.656Z,100061.16
2022-09-23T11:34:26.953Z,100061.13
2022-09-23T11:37:06.981Z,100055.19
2022-09-23T11:40:05.882Z,100052.03
2022-09-23T11:42:58.262Z,100052.59
2022-09-23T11:46:05.803Z,100056.12
2022-09-23T11:48:49.725Z,100046.91
2022-09-23T11:51:37.701Z,100038.47
2022-09-23T11:54:14.405Z,100039.66
2022-09-23T11:56:52.345Z,100041.09
2022-09-23T11:59:39.722Z,100034.03
2022-09-23T12:02:29.665Z,100042.38
2022-09-23T12:05:22.677Z,100036.81
2022-09-23T12:07:58.354Z,100029.69
2022-09-23T12:10:56.926Z,100031.44
2022-09-23T12:13:59.614Z,100026.87
2022-09-23T12:16:56.559Z,100017.75
2022-09-23T12:20:03.499Z,100024.13
2022-09-23T12:22:48.079Z,100019.31
2022-09-23T12:25:46.879Z,100016.22
2022-09-23T12:28:20.118Z,100012.66
2022-09-23T12:30:48.946Z,100000.34
2022-09-23T12:33:25.049Z,100015.78
2022-09-23T12:35:55.006Z,100001.94
2022-09-23T12:38:29.589Z,99995.72
2022-09-23T12:40:57.534Z,99990.19
2022-09-23T12:43:35.568Z,99999.69
2022-09-23T12:46:35.683Z,99993.50
2022-09-23T12:49:05.167Z,99993.59
2022-09-23T12:51:34.797Z,99988.72
2022-09-23T12:54:05.196Z,99980.50
2022-09-23T12:56:33.558Z,99979.69
2022-09-23T12:59:13.350Z,99982.00
2022-09-23T13:01:42.209Z,99966.78
2022-09-23T13:04:47.327Z,99968.88
2022-09-23T13:07:17.415Z,99965.53
2022-09-23T13:09:51.368Z,99959.12
2022-09-23T13:12:35.425Z,99959.56
2022-09-23T13:15:06.669Z,99957.47
2022-09-23T13:17:38.355Z,99958.75
2022-09-23T13:20:24.842Z,99948.72
2022-09-23T13:22:53.524Z,99953.91
2022-09-23T13:25:48.353Z,99950.75
2022-09-23T13:28:39.717Z,99949.16
2022-09-23T13:31:14.454Z,99950.63
2022-09-23T13:33:45.864Z,99956.06
2022-09-23T13:38:47.168Z,99962.16
2022-09-23T13:41:21.266Z,99948.47
2022-09-23T13:44:01.175Z,99955.81
2022-09-23T13:46:51.567Z,99947.66
2022-09-23T13:49:25.312Z,99944.91
2022-09-23T13:51:54.342Z,99942.47
2022-09-23T13:54:33.677Z,99947.41
2022-09-23T13:57:06.225Z,99954.03
2022-09-23T13:59:41.217Z,99950.41
2022-09-23T14:02:20.941Z,99942.84
2022-09-23T14:04:50.989Z,99943.97
2022-09-23T14:07:23.100Z,99946.00
2022-09-23T14:09:55.879Z,99941.97
2022-09-23T14:12:24.247Z,99937.28
2022-09-23T14:14:53.278Z,99929.44
2022-09-23T14:17:31.217Z,99929.59
2022-09-23T14:19:59.522Z,99935.25
2022-09-23T14:22:28.951Z,99931.31
2022-09-23T14:25:01.524Z,99931.84
2022-09-23T14:27:36.390Z,99928.50
2022-09-23T14:30:20.517Z,99930.06
2022-09-23T14:32:51.702Z,99925.59
2022-09-23T14:35:29.278Z,99925.00
2022-09-23T14:38:20.577Z,99927.88
2022-09-23T14:41:19.280Z,99921.38
2022-09-23T14:44:24.012Z,99917.34
2022-09-23T14:47:03.725Z,99915.66
2022-09-23T14:49:39.317Z,99916.50
2022-09-23T14:52:08.742Z,99909.37
2022-09-23T14:54:41.935Z,99911.34
2022-09-23T14:57:25.689Z,99910.56
2022-09-23T15:00:00.600Z,99914.72
2022-09-23T15:02:37.102Z,99909.25
2022-09-23T15:05:19.359Z,99902.94
2022-09-23T15:07:52.999Z,99915.88
2022-09-23T15:10:28.189Z,99908.59
2022-09-23T15:13:21.472Z,99913.56
2022-09-23T15:15:53.659Z,99912.03
2022-09-23T15:18:26.890Z,99905.47
2022-09-23T15:21:02.278Z,99912.03
2022-09-23T15:23:35.890Z,99903.81
2022-09-23T15:26:19.337Z,99913.72
2022-09-23T15:28:58.642Z,99908.03
2022-09-23T15:31:35.420Z,99903.88
2022-09-23T15:34:06.784Z,99904.84
2022-09-23T15:36:39.106Z,99912.25
2022-09-23T15:39:13.894Z,99908.50
2022-09-23T15:42:03.308Z,99905.09
2022-09-23T15:44:49.670Z,99905.03
2022-09-23T15:47:39.936Z,99896.09
2022-09-23T15:50:19.840Z,99894.84
2022-09-23T15:52:48.217Z,99895.69
2022-09-23T15:55:24.397Z,99896.84
2022-09-23T15:57:56.404Z,99901.13
2022-09-23T16:00:32.513Z,99902.13
2022-09-23T16:03:02.676Z,99890.62
2022-09-23T16:06:10.585Z,99904.53
2022-09-23T16:08:53.961Z,99899.66
2022-09-23T16:11:39.031Z,99902.44
2022-09-23T16:14:12.431Z,99899.00
2022-09-23T16:16:48.107Z,99898.53
2022-09-23T16:19:22.995Z,99897.84
2022-09-23T16:21:55.203Z,99900.06
2022-09-23T16:24:28.268Z,99910.41
2022-09-23T16:27:03.707Z,99906.62
2022-09-23T16:29:40.281Z,99900.28
2022-09-23T16:32:16.877Z,99892.59
2022-09-23T16:34:51.880Z,99906.25
2022-09-23T16:37:22.720Z,99900.66
2022-09-23T16:39:53.917Z,99904.34
2022-09-23T16:42:46.486Z,99904.50
2022-09-23T16:45:22.511Z,99905.16
2022-09-23T16:48:08.041Z,99903.59
2022-09-23T16:50:37.315Z,99906.84
2022-09-23T16:53:18.505Z,99904.53
2022-09-23T16:55:56.275Z,99900.88
2022-09-23T16:58:57.430Z,99899.19
2022-09-23T17:01:47.906Z,99894.75
2022-09-23T17:04:24.715Z,99895.28
2022-09-23T17:07:04.550Z,99894.91
2022-09-23T17:09:35.565Z,99898.56
2022-09-23T17:12:18.374Z,99892.88
2022-09-23T17:14:47.815Z,99896.59
2022-09-23T17:17:16.274Z,99898.03
2022-09-23T17:19:44.215Z,99892.94
2022-09-23T17:22:12.358Z,99898.00
2022-09-23T17:24:48.397Z,99895.37
2022-09-23T17:27:20.747Z,99902.00
2022-09-23T17:29:55.776Z,99901.37
2022-09-23T17:32:25.586Z,99900.75
2022-09-23T17:35:13.988Z,99910.75
2022-09-23T17:37:48.833Z,99909.44
2022-09-23T17:40:22.554Z,99909.81
2022-09-23T17:42:55.916Z,99913.69
2022-09-23T17:45:38.559Z,99914.09
2022-09-23T17:48:07.014Z,99913.72
2022-09-23T17:50:41.582Z,99906.09
2022-09-23T17:53:18.228Z,99913.22
2022-09-23T17:56:05.076Z,99915.19
2022-09-23T17:58:36.319Z,99917.63
2022-09-23T18:01:33.071Z,99922.44
2022-09-23T18:04:39.645Z,99926.13
2022-09-23T18:07:08.406Z,99919.75
2022-09-23T18:09:36.216Z,99925.31
2022-09-23T18:12:08.024Z,99927.06
2022-09-23T18:14:37.808Z,99924.53
2022-09-23T18:17:05.938Z,99930.59
2022-09-23T18:19:36.842Z,99926.63
2022-09-23T18:22:16.116Z,99923.28
2022-09-23T18:24:50.070Z,99927.47
2022-09-23T18:27:20.293Z,99929.34
2022-09-23T18:30:16.112Z,99932.19
2022-09-23T18:32:56.305Z,99926.16
2022-09-23T18:35:27.664Z,99929.50
2022-09-23T18:37:56.334Z,99936.03
2022-09-23T18:40:26.329Z,99935.00
2022-09-23T18:43:11.193Z,99932.53
2022-09-23T18:46:17.128Z,99929.75
2022-09-23T18:49:09.230Z,99934.13
2022-09-23T18:51:50.465Z,99930.78
2022-09-23T18:54:32.654Z,99937.06
2022-09-23T18:57:03.131Z,99927.28
2022-09-23T18:59:39.509Z,99936.78
2022-09-23T19:02:21.071Z,99933.13
2022-09-23T19:04:59.540Z,99927.91
2022-09-23T19:07:28.197Z,99934.09
2022-09-23T19:10:01.663Z,99935.34
2022-09-23T19:12:33.421Z,99930.09
2022-09-23T19:15:08.686Z,99929.03
2022-09-23T19:17:38.194Z,99933.69
2022-09-23T19:20:10.501Z,99933.09
2022-09-23T19:22:38.766Z,99932.59
2022-09-23T19:25:10.146Z,99931.31
2022-09-23T19:27:40.869Z,99930.78
2022-09-23T19:30:14.469Z,99934.63
2022-09-23T19:32:52.852Z,99935.78
2022-09-23T19:35:51.886Z,99934.66
2022-09-23T19:38:40.485Z,99927.66
2022-09-23T19:41:12.746Z,99928.84
2022-09-23T19:43:44.696Z,99927.97
2022-09-23T19:46:13.986Z,99929.75
2022-09-23T19:48:44.135Z,99924.59
2022-09-23T19:51:17.374Z,99936.47
2022-09-23T19:53:50.825Z,99931.13
2022-09-23T19:56:21.353Z,99944.06
2022-09-23T19:58:55.004Z,99932.97
2022-09-23T20:01:26.711Z,99930.16
2022-09-23T20:04:00.105Z,99936.19
2022-09-23T20:06:37.190Z,99931.44
2022-09-23T20:09:10.112Z,99921.25
2022-09-23T20:11:40.800Z,99920.97
2022-09-23T20:14:13.177Z,99926.50
2022-09-23T20:16:54.232Z,99932.44
2022-09-23T20:19:24.755Z,99924.84
2022-09-23T20:22:23.558Z,99920.09
2022-09-23T20:25:00.270Z,99917.75
2022-09-23T20:27:44.029Z,99919.31
2022-09-23T20:30:52.966Z,99920.13
2022-09-23T20:33:29.974Z,99925.66
2022-09-23T20:36:01.087Z,99926.31
2022-09-23T20:38:29.735Z,99923.03
2022-09-23T20:41:04.058Z,99922.56
2022-09-23T20:43:34.632Z,99924.78
2022-09-23T20:46:05.578Z,99924.19
2022-09-23T20:48:34.130Z,99913.84
2022-09-23T20:51:06.099Z,99920.38
2022-09-23T20:53:35.305Z,99916.16
2022-09-23T20:56:06.461Z,99916.87
2022-09-23T20:58:38.228Z,99914.72
2022-09-23T21:01:13.571Z,99915.31
2022-09-23T21:03:45.176Z,99921.34
2022-09-23T21:06:15.309Z,99918.56
2022-09-23T21:08:47.013Z,99910.66
2022-09-23T21:11:17.330Z,99910.56
2022-09-23T21:13:50.573Z,99914.38
2022-09-23T21:16:20.284Z,99906.34
2022-09-23T21:18:50.573Z,99917.44
2022-09-23T21:21:19.957Z,99914.75
2022-09-23T21:23:49.396Z,99917.75
2022-09-23T21:26:23.445Z,99914.41
2022-09-23T21:28:53.606Z,99914.19
2022-09-23T21:31:24.172Z,99918.66
2022-09-23T21:33:53.950Z,99916.53
2022-09-23T21:36:25.892Z,99923.47
2022-09-23T21:38:56.350Z,99914.56
2022-09-23T21:41:24.221Z,99923.34
2022-09-23T21:43:52.386Z,99929.81
2022-09-23T21:46:21.564Z,99929.56
2022-09-23T21:48:53.951Z,99928.59
2022-09-23T21:51:27.862Z,99933.34
2022-09-23T21:53:57.960Z,99927.75
2022-09-23T21:56:32.344Z,99926.72
2022-09-23T21:59:03.073Z,99933.94
2022-09-23T22:01:38.130Z,99934.63
2022-09-23T22:04:15.119Z,99926.53
2022-09-23T22:06:45.845Z,99929.97
2022-09-23T22:09:17.990Z,99928.28
2022-09-23T22:12:10.032Z,99926.47
2022-09-23T22:14:39.611Z,99915.94
2022-09-23T22:17:10.723Z,99920.16
2022-09-23T22:19:46.778Z,99921.84
2022-09-23T22:22:18.009Z,99925.44
2022-09-23T22:24:47.669Z,99931.19
2022-09-23T22:27:21.229Z,99926.59
2022-09-23T22:30:11.501Z,99939.75
2022-09-23T22:32:43.802Z,99928.72
2022-09-23T22:35:17.013Z,99929.16
2022-09-23T22:37:45.593Z,99926.25
2022-09-23T22:40:15.619Z,99928.94
2022-09-23T22:42:48.965Z,99920.53
2022-09-23T22:45:20.843Z,99919.66
2022-09-23T22:47:53.518Z,99918.88
2022-09-23T22:50:21.930Z,99927.88
2022-09-23T22:52:49.818Z,99932.72
2022-09-23T22:55:17.716Z,99929.28
2022-09-23T22:57:48.458Z,99925.37
2022-09-23T23:00:16.267Z,99921.81
2022-09-23T23:02:43.989Z,99926.00
2022-09-23T23:05:12.324Z,99923.25
2022-09-23T23:07:41.249Z,99931.16
2022-09-23T23:10:10.438Z,99928.06
2022-09-23T23:12:42.537Z,99919.75
2022-09-23T23:15:12.786Z,99926.13
2022-09-23T23:17:43.609Z,99921.31
2022-09-23T23:20:12.036Z,99931.75
2022-09-23T23:22:39.833Z,99921.91
2022-09-23T23:25:11.328Z,99922.47
2022-09-23T23:27:39.182Z,99922.28
2022-09-23T23:30:08.435Z,99914.72
2022-09-23T23:32:36.914Z,99921.97
2022-09-23T23:35:05.588Z,99925.47
2022-09-23T23:37:33.686Z,99919.25
2022-09-23T23:40:05.080Z,99913.84
2022-09-23T23:42:33.123Z,99912.03
2022-09-23T23:45:00.981Z,99910.00
2022-09-23T23:47:29.389Z,99906.34
2022-09-23T23:50:00.913Z,99907.56
2022-09-23T23:52:29.089Z,99900.63
2022-09-23T23:55:00.373Z,99901.75
2022-09-23T23:57:30.853Z,99907.59
2022-09-23T23:59:59.723Z,99904.50
